Time;durP1;ratioP1;P1;durP2;ratioP2;P2;SDS_P1;SDS_P2;PMS_P1;PMS_P2;Temp;Humidity;BMP_temperature;BMP_pressure;BME280_temperature;BME280_humidity;BME280_pressure;Samples;Min_cycle;Max_cycle;Signal;HPM_P1;HPM_P2
2021/09/20 00:01:32;;;;;;;;;;;;;;;18.92;47.45;100431.78;5137379;27;759;-61
2021/09/20 00:03:58;;;;;;;;;;;;;;;19.04;48.04;100425.84;5118506;27;1910;-60
2021/09/20 00:06:23;;;;;;;;;;;;;;;19.56;50.50;100438.78;5136839;27;980;-60
2021/09/20 00:08:49;;;;;;;;;;;;;;;19.82;53.25;100423.47;5137181;27;743;-61
2021/09/20 00:11:14;;;;;;;;;;;;;;;20.49;53.50;100421.31;5136938;27;858;-61
2021/09/20 00:13:40;;;;;;;;;;;;;;;20.76;54.27;100420.50;5136985;27;767;-60
2021/09/20 00:16:05;;;;;;;;;;;;;;;20.62;56.26;100425.19;5137103;27;1172;-61
2021/09/20 00:18:31;;;;;;;;;;;;;;;21.00;56.14;100434.03;5136806;27;775;-60
2021/09/20 00:20:56;;;;;;;;;;;;;;;21.18;56.08;100423.94;5139878;27;1565;-60
2021/09/20 00:23:22;;;;;;;;;;;;;;;21.34;56.00;100434.63;5157051;27;1909;-60
2021/09/20 00:25:47;;;;;;;;;;;;;;;21.49;55.89;100428.72;5157427;27;805;-60
2021/09/20 00:28:13;;;;;;;;;;;;;;;21.66;55.46;100430.00;5157590;27;794;-60
2021/09/20 00:30:40;;;;;;;;;;;;;;;21.41;56.14;100429.47;5156868;27;751;-60
2021/09/20 00:33:06;;;;;;;;;;;;;;;21.01;54.75;100426.53;5157638;27;841;-61
2021/09/20 00:35:32;;;;;;;;;;;;;;;20.11;52.64;100427.88;5157188;27;846;-61
2021/09/20 00:37:57;;;;;;;;;;;;;;;19.78;49.46;100427.09;5157390;27;957;-61
2021/09/20 00:40:23;;;;;;;;;;;;;;;19.20;47.49;100428.34;5157183;27;763;-59
2021/09/20 00:42:48;;;;;;;;;;;;;;;18.99;46.93;100436.94;5157414;27;1970;-59
2021/09/20 00:45:13;;;;;;;;;;;;;;;19.28;49.74;100435.94;5157402;27;823;-61
2021/09/20 00:47:39;;;;;;;;;;;;;;;19.91;51.67;100431.00;5156961;27;822;-62
2021/09/20 00:50:05;;;;;;;;;;;;;;;20.16;53.49;100438.81;5157568;27;793;-62
2021/09/20 00:52:30;;;;;;;;;;;;;;;20.37;54.88;100441.19;5143551;27;960;-59
2021/09/20 00:54:56;;;;;;;;;;;;;;;20.55;55.96;100435.84;5136317;28;775;-62
2021/09/20 00:57:21;;;;;;;;;;;;;;;21.00;55.70;100428.50;5118419;28;850;-62
2021/09/20 00:59:47;;;;;;;;;;;;;;;21.07;56.20;100433.59;5136647;28;754;-61
2021/09/20 01:02:12;;;;;;;;;;;;;;;21.27;56.20;100423.19;5136055;28;1914;-62
2021/09/20 01:04:37;;;;;;;;;;;;;;;21.41;55.98;100420.34;5136667;28;814;-59
2021/09/20 01:07:03;;;;;;;;;;;;;;;21.73;55.46;100416.50;5136136;28;969;-61
2021/09/20 01:09:29;;;;;;;;;;;;;;;21.88;54.99;100409.72;5136270;28;843;-60
2021/09/20 01:11:54;;;;;;;;;;;;;;;21.73;55.57;100413.75;5136449;28;823;-61
2021/09/20 01:14:20;;;;;;;;;;;;;;;21.52;55.87;100422.56;5136093;28;771;-61
2021/09/20 01:16:45;;;;;;;;;;;;;;;21.08;54.45;100420.59;5135744;28;1041;-62
2021/09/20 01:19:10;;;;;;;;;;;;;;;20.41;51.68;100417.34;5136807;28;819;-61
2021/09/20 01:21:36;;;;;;;;;;;;;;;19.65;49.42;100417.66;5144731;27;1652;-62
2021/09/20 01:24:01;;;;;;;;;;;;;;;19.14;47.25;100417.41;5156628;27;1917;-62
2021/09/20 01:26:27;;;;;;;;;;;;;;;18.93;45.68;100422.41;5157407;27;763;-62
2021/09/20 01:28:52;;;;;;;;;;;;;;;19.38;47.31;100416.47;5156939;27;739;-62
2021/09/20 01:31:18;;;;;;;;;;;;;;;19.71;50.35;100412.88;5156623;27;751;-61
2021/09/20 01:33:43;;;;;;;;;;;;;;;20.02;52.74;100417.84;5157128;27;759;-61
2021/09/20 01:36:09;;;;;;;;;;;;;;;20.26;54.38;100428.69;5156553;27;938;-59
2021/09/20 01:38:34;;;;;;;;;;;;;;;20.39;55.80;100421.53;5156488;27;1138;-62
2021/09/20 01:41:00;;;;;;;;;;;;;;;20.74;56.05;100422.72;5158389;27;798;-61
2021/09/20 01:43:25;;;;;;;;;;;;;;;21.11;55.77;100422.72;5160759;27;1980;-60
2021/09/20 01:45:50;;;;;;;;;;;;;;;21.24;56.01;100423.78;5160596;27;806;-61
2021/09/20 01:48:17;;;;;;;;;;;;;;;21.36;56.27;100418.53;5160551;27;806;-62
2021/09/20 01:50:43;;;;;;;;;;;;;;;21.32;56.50;100415.59;5160672;27;755;-62
2021/09/20 01:53:08;;;;;;;;;;;;;;;21.42;56.56;100421.97;5159993;27;960;-59
2021/09/20 01:55:34;;;;;;;;;;;;;;;21.73;55.67;100422.03;5160253;27;819;-62
2021/09/20 01:57:59;;;;;;;;;;;;;;;21.67;55.49;100415.84;5160378;27;842;-62
2021/09/20 02:00:25;;;;;;;;;;;;;;;21.31;54.16;100413.13;5160486;27;831;-62
2021/09/20 02:02:50;;;;;;;;;;;;;;;20.43;53.16;100412.31;5160031;27;1917;-61
2021/09/20 02:05:15;;;;;;;;;;;;;;;20.26;49.78;100406.59;5160238;27;823;-60
2021/09/20 02:07:41;;;;;;;;;;;;;;;19.42;47.87;100406.47;5159565;27;945;-61
2021/09/20 02:10:07;;;;;;;;;;;;;;;18.93;46.86;100400.38;5160118;27;803;-58
2021/09/20 02:12:32;;;;;;;;;;;;;;;18.90;46.71;100408.41;5141765;27;735;-59
2021/09/20 02:14:58;;;;;;;;;;;;;;;19.31;49.84;100413.28;5160171;27;775;-59
2021/09/20 02:17:23;;;;;;;;;;;;;;;19.66;52.56;100413.78;5159800;27;1049;-59
2021/09/20 02:19:49;;;;;;;;;;;;;;;19.94;54.11;100414.69;5159793;27;900;-59
2021/09/20 02:22:14;;;;;;;;;;;;;;;20.37;54.99;100408.03;5159556;27;1980;-59
2021/09/20 02:24:39;;;;;;;;;;;;;;;20.42;56.29;100405.16;5159844;27;755;-59
2021/09/20 02:27:08;;;;;;;;;;;;;;;20.70;56.46;100398.81;5159780;27;783;-59
2021/09/20 02:29:33;;;;;;;;;;;;;;;20.99;56.50;100395.66;5160409;27;787;-60
2021/09/20 02:31:59;;;;;;;;;;;;;;;21.09;56.70;100400.94;5159486;27;839;-59
2021/09/20 02:34:24;;;;;;;;;;;;;;;21.15;56.93;100399.69;5160021;27;862;-61
2021/09/20 02:36:50;;;;;;;;;;;;;;;21.34;56.72;100402.25;5159153;27;969;-61
2021/09/20 02:39:15;;;;;;;;;;;;;;;21.67;55.73;100398.41;5159664;27;842;-55
2021/09/20 02:41:40;;;;;;;;;;;;;;;21.55;55.48;100401.75;5159597;27;1157;-60
2021/09/20 02:44:07;;;;;;;;;;;;;;;20.98;54.61;100405.06;5159558;27;1974;-61
2021/09/20 02:46:34;;;;;;;;;;;;;;;20.56;51.91;100410.66;5159033;27;845;-60
2021/09/20 02:49:00;;;;;;;;;;;;;;;19.88;50.15;100401.28;5159586;27;890;-60
2021/09/20 02:51:25;;;;;;;;;;;;;;;19.18;48.42;100400.25;5159238;27;953;-59
2021/09/20 02:53:51;;;;;;;;;;;;;;;18.82;47.16;100404.38;5158112;27;762;-61
2021/09/20 02:56:16;;;;;;;;;;;;;;;19.28;48.58;100411.13;5159471;27;821;-61
2021/09/20 02:58:42;;;;;;;;;;;;;;;19.68;51.46;100403.25;5159232;27;806;-61
2021/09/20 03:01:07;;;;;;;;;;;;;;;20.13;53.78;100414.59;5159146;27;942;-62
2021/09/20 03:03:33;;;;;;;;;;;;;;;20.28;55.28;100420.94;5159146;27;1962;-62
2021/09/20 03:05:58;;;;;;;;;;;;;;;20.44;56.44;100422.25;5158976;27;961;-62
2021/09/20 03:08:23;;;;;;;;;;;;;;;20.72;56.75;100415.88;5158431;27;1000;-62
2021/09/20 03:10:49;;;;;;;;;;;;;;;20.92;56.80;100417.38;5159023;27;774;-62
2021/09/20 03:13:14;;;;;;;;;;;;;;;21.05;57.15;100419.25;5159226;27;827;-62
2021/09/20 03:15:40;;;;;;;;;;;;;;;21.35;56.74;100414.94;5158275;27;1072;-62
2021/09/20 03:18:05;;;;;;;;;;;;;;;21.30;57.02;100415.06;5158854;27;787;-62
2021/09/20 03:20:30;;;;;;;;;;;;;;;21.53;56.42;100415.91;5159103;27;803;-62
2021/09/20 03:22:56;;;;;;;;;;;;;;;21.91;55.20;100422.13;5157804;27;1987;-62
2021/09/20 03:25:21;;;;;;;;;;;;;;;21.14;56.07;100405.50;5159149;27;798;-62
2021/09/20 03:27:47;;;;;;;;;;;;;;;20.98;52.87;100421.66;5158668;27;822;-62
2021/09/20 03:30:13;;;;;;;;;;;;;;;19.74;51.74;100418.63;5158445;27;834;-62
2021/09/20 03:32:38;;;;;;;;;;;;;;;19.66;48.37;100417.34;5158851;27;794;-59
2021/09/20 03:35:04;;;;;;;;;;;;;;;19.24;46.82;100421.94;5158713;27;835;-62
2021/09/20 03:37:30;;;;;;;;;;;;;;;18.56;46.62;100420.41;5157373;27;942;-64
2021/09/20 03:39:55;;;;;;;;;;;;;;;19.00;48.40;100418.44;5158999;27;758;-63
2021/09/20 03:42:21;;;;;;;;;;;;;;;19.46;51.28;100421.31;5158474;27;1976;-64
2021/09/20 03:44:46;;;;;;;;;;;;;;;20.06;52.53;100414.16;5158130;27;810;-64
2021/09/20 03:47:11;;;;;;;;;;;;;;;20.17;54.66;100421.16;5158360;27;787;-64
2021/09/20 03:49:37;;;;;;;;;;;;;;;20.46;55.52;100417.22;5158071;27;758;-64
2021/09/20 03:52:02;;;;;;;;;;;;;;;20.72;56.01;100421.41;5148520;27;1011;-63
2021/09/20 03:54:28;;;;;;;;;;;;;;;20.93;56.24;100419.84;5137661;27;846;-64
2021/09/20 03:56:53;;;;;;;;;;;;;;;21.13;56.11;100418.53;5137030;27;760;-64
2021/09/20 03:59:19;;;;;;;;;;;;;;;21.11;56.78;100415.28;5137424;27;853;-64
2021/09/20 04:01:44;;;;;;;;;;;;;;;21.20;56.80;100407.84;5136903;27;830;-64
2021/09/20 04:04:09;;;;;;;;;;;;;;;21.63;55.98;100425.06;5160542;27;1917;-60
2021/09/20 04:06:36;;;;;;;;;;;;;;;21.01;57.93;100415.50;5170521;27;866;-62
2021/09/20 04:09:02;;;;;;;;;;;;;;;21.16;57.70;100417.88;5170313;27;755;-67
2021/09/20 04:11:28;;;;;;;;;;;;;;;20.86;57.80;100422.22;5179365;27;746;-68
2021/09/20 04:13:53;;;;;;;;;;;;;;;20.41;56.21;100422.03;5167551;27;846;-60
2021/09/20 04:16:19;;;;;;;;;;;;;;;19.67;54.17;100419.00;5157880;27;1128;-61
2021/09/20 04:18:44;;;;;;;;;;;;;;;19.29;50.93;100424.63;5157659;27;759;-67
2021/09/20 04:21:10;;;;;;;;;;;;;;;18.66;49.31;100430.47;5157457;27;1639;-52
2021/09/20 04:23:35;;;;;;;;;;;;;;;18.21;47.81;100430.75;5157695;27;1913;-63
2021/09/20 04:26:00;;;;;;;;;;;;;;;18.16;48.68;100439.06;5157929;27;839;-63
2021/09/20 04:28:26;;;;;;;;;;;;;;;18.75;52.14;100446.03;5157324;27;863;-66
2021/09/20 04:30:51;;;;;;;;;;;;;;;19.22;54.43;100446.22;5157434;27;830;-53
2021/09/20 04:33:17;;;;;;;;;;;;;;;19.33;56.60;100457.91;5157768;27;870;-52
2021/09/20 04:35:43;;;;;;;;;;;;;;;19.60;58.07;100467.41;5157948;27;755;-63
2021/09/20 04:38:08;;;;;;;;;;;;;;;19.97;58.24;100469.25;5156486;27;965;-61
2021/09/20 04:40:37;;;;;;;;;;;;;;;20.44;58.00;100468.38;5157310;27;869;-63
2021/09/20 04:43:07;;;;;;;;;;;;;;;20.57;58.22;100477.78;5157963;27;1917;-64
2021/09/20 04:45:32;;;;;;;;;;;;;;;20.77;58.09;100471.84;5157176;27;825;-60
2021/09/20 04:47:58;;;;;;;;;;;;;;;21.10;57.45;100479.97;5157883;27;775;-64
2021/09/20 04:50:23;;;;;;;;;;;;;;;21.23;57.37;100483.81;5157544;27;754;-63
2021/09/20 04:52:49;;;;;;;;;;;;;;;21.55;56.74;100484.75;5156285;27;973;-54
2021/09/20 04:55:14;;;;;;;;;;;;;;;21.34;57.15;100493.50;5157542;27;794;-57
2021/09/20 04:57:39;;;;;;;;;;;;;;;21.07;56.97;100491.66;5157533;27;812;-61
2021/09/20 05:00:06;;;;;;;;;;;;;;;20.17;55.58;100494.84;5156988;27;762;-63
2021/09/20 05:02:31;;;;;;;;;;;;;;;19.57;52.82;100485.38;5157344;27;1913;-63
2021/09/20 05:05:03;;;;;;;;;;;;;;;19.01;50.68;100488.97;5157359;27;830;-60
2021/09/20 05:07:28;;;;;;;;;;;;;;;18.46;49.19;100485.50;5156286;27;953;-60
2021/09/20 05:09:53;;;;;;;;;;;;;;;18.34;48.67;100485.13;5138689;27;1209;-60
2021/09/20 05:12:19;;;;;;;;;;;;;;;18.62;51.42;100496.31;5157436;27;778;-45
2021/09/20 05:14:44;;;;;;;;;;;;;;;19.25;53.66;100505.44;5157030;27;751;-60
2021/09/20 05:17:10;;;;;;;;;;;;;;;19.52;55.63;100507.53;5160412;27;1179;-59
2021/09/20 05:19:39;;;;;;;;;;;;;;;19.79;56.85;100514.25;5160939;27;846;-48
2021/09/20 05:22:04;;;;;;;;;;;;;;;20.07;57.38;100512.41;5160786;27;1640;-64
2021/09/20 05:24:29;;;;;;;;;;;;;;;20.55;57.11;100502.94;5161253;27;1976;-57
2021/09/20 05:26:55;;;;;;;;;;;;;;;20.64;57.81;100506.63;5161093;27;747;-63
2021/09/20 05:29:20;;;;;;;;;;;;;;;20.85;57.76;100509.00;5161115;27;811;-62
2021/09/20 05:31:46;;;;;;;;;;;;;;;20.63;58.66;100513.28;5161236;27;759;-63
2021/09/20 05:34:11;;;;;;;;;;;;;;;21.08;57.65;100507.09;5161067;27;870;-62
2021/09/20 05:36:37;;;;;;;;;;;;;;;21.17;57.60;100518.25;5160108;27;1069;-63
2021/09/20 05:39:02;;;;;;;;;;;;;;;21.43;56.99;100510.16;5142512;27;1178;-59
2021/09/20 05:41:28;;;;;;;;;;;;;;;20.67;57.85;100510.72;5160854;27;775;-47
2021/09/20 05:43:53;;;;;;;;;;;;;;;19.97;55.84;100504.31;5160275;27;1909;-53
2021/09/20 05:46:19;;;;;;;;;;;;;;;19.37;53.27;100505.00;5160829;27;867;-52
2021/09/20 05:48:44;;;;;;;;;;;;;;;18.88;51.58;100507.06;5160896;27;739;-61
2021/09/20 05:51:10;;;;;;;;;;;;;;;18.54;50.07;100500.56;5160150;27;961;-51
2021/09/20 05:53:36;;;;;;;;;;;;;;;18.64;48.76;100497.69;5160701;27;747;-52
2021/09/20 05:56:02;;;;;;;;;;;;;;;18.42;48.76;100503.72;5160859;27;823;-59
2021/09/20 05:58:27;;;;;;;;;;;;;;;18.63;51.68;100517.25;5160249;27;790;-60
2021/09/20 06:00:53;;;;;;;;;;;;;;;19.03;54.83;100515.13;5160532;27;783;-61
2021/09/20 06:03:18;;;;;;;;;;;;;;;19.33;56.48;100513.03;5160905;27;1972;-52
2021/09/20 06:05:44;;;;;;;;;;;;;;;19.78;57.09;100502.41;5160206;27;850;-58
2021/09/20 06:08:09;;;;;;;;;;;;;;;20.23;56.94;100501.91;5159728;27;952;-52
2021/09/20 06:10:35;;;;;;;;;;;;;;;20.44;57.25;100498.75;5160208;27;932;-46
2021/09/20 06:13:00;;;;;;;;;;;;;;;20.60;57.67;100493.75;5159968;27;791;-56
2021/09/20 06:15:26;;;;;;;;;;;;;;;20.58;58.28;100490.47;5160299;27;813;-62
2021/09/20 06:17:51;;;;;;;;;;;;;;;20.95;57.71;100494.94;5160367;27;1030;-47
2021/09/20 06:20:17;;;;;;;;;;;;;;;20.93;58.15;100491.69;5159800;27;814;-62
2021/09/20 06:22:42;;;;;;;;;;;;;;;21.03;58.13;100496.19;5159194;27;1913;-62
2021/09/20 06:25:08;;;;;;;;;;;;;;;21.18;57.73;100498.59;5160160;27;771;-62
2021/09/20 06:27:34;;;;;;;;;;;;;;;21.10;57.23;100499.31;5158457;27;902;-62
2021/09/20 06:29:59;;;;;;;;;;;;;;;20.38;55.85;100506.31;5159915;27;794;-50
2021/09/20 06:32:24;;;;;;;;;;;;;;;19.88;53.35;100506.13;5160450;27;822;-58
2021/09/20 06:34:50;;;;;;;;;;;;;;;19.34;51.21;100505.59;5159448;27;922;-45
2021/09/20 06:37:15;;;;;;;;;;;;;;;18.83;49.36;100510.69;5159285;27;1022;-62
2021/09/20 06:39:41;;;;;;;;;;;;;;;18.56;48.26;100517.59;5159694;27;746;-46
2021/09/20 06:42:06;;;;;;;;;;;;;;;18.33;48.74;100513.75;5159595;27;814;-57
2021/09/20 06:44:33;;;;;;;;;;;;;;;18.94;51.36;100519.66;5141308;27;1914;-58
2021/09/20 06:46:58;;;;;;;;;;;;;;;19.29;54.11;100523.03;5159746;27;743;-59
2021/09/20 06:49:24;;;;;;;;;;;;;;;20.11;54.34;100518.97;5159106;27;723;-56
2021/09/20 06:51:51;;;;;;;;;;;;;;;20.25;55.56;100516.22;5159181;27;1020;-57
2021/09/20 06:54:19;;;;;;;;;;;;;;;20.49;56.09;100516.03;5159770;27;527;-58
2021/09/20 06:56:45;;;;;;;;;;;;;;;20.97;55.54;100513.97;5159174;27;919;-56
2021/09/20 06:59:10;;;;;;;;;;;;;;;21.15;55.49;100510.28;5159612;27;787;-57
2021/09/20 07:01:36;;;;;;;;;;;;;;;21.34;55.68;100514.81;5159002;27;747;-57
2021/09/20 07:04:01;;;;;;;;;;;;;;;21.33;55.84;100519.53;5159267;27;1917;-57
2021/09/20 07:06:27;;;;;;;;;;;;;;;21.53;55.60;100532.09;5158644;27;957;-58
2021/09/20 07:08:52;;;;;;;;;;;;;;;21.51;55.91;100519.69;5159122;27;854;-58
2021/09/20 07:11:17;;;;;;;;;;;;;;;21.61;55.58;100526.94;5159118;27;791;-58
2021/09/20 07:13:43;;;;;;;;;;;;;;;21.36;55.11;100520.84;5159031;27;827;-58
2021/09/20 07:16:08;;;;;;;;;;;;;;;20.70;53.90;100520.38;5159117;27;1152;-58
2021/09/20 07:18:34;;;;;;;;;;;;;;;19.79;52.56;100512.34;5159076;27;866;-57
2021/09/20 07:20:59;;;;;;;;;;;;;;;19.42;50.20;100513.19;5158436;27;1600;-57
2021/09/20 07:23:25;;;;;;;;;;;;;;;18.92;48.91;100503.41;5158840;27;1918;-56
2021/09/20 07:25:50;;;;;;;;;;;;;;;18.56;47.65;100511.28;5159145;27;818;-55
2021/09/20 07:28:15;;;;;;;;;;;;;;;18.69;47.73;100502.31;5158548;27;763;-58
2021/09/20 07:30:41;;;;;;;;;;;;;;;19.04;50.82;100511.25;5158378;27;730;-58
2021/09/20 07:33:07;;;;;;;;;;;;;;;19.42;53.57;100500.22;5159260;27;750;-61
2021/09/20 07:35:32;;;;;;;;;;;;;;;20.09;54.34;100507.41;5158328;27;831;-50
2021/09/20 07:37:58;;;;;;;;;;;;;;;20.40;54.79;100504.06;5158252;27;1016;-55
2021/09/20 07:40:25;;;;;;;;;;;;;;;20.28;56.63;100503.75;5158200;27;769;-58
2021/09/20 07:42:51;;;;;;;;;;;;;;;20.55;56.73;100507.66;5158058;27;1978;-48
2021/09/20 07:45:16;;;;;;;;;;;;;;;20.69;57.13;100514.00;5158559;27;731;-60
2021/09/20 07:47:42;;;;;;;;;;;;;;;21.19;55.94;100511.25;5157762;27;1172;-52
2021/09/20 07:50:07;;;;;;;;;;;;;;;21.38;55.69;100515.84;5157454;27;1192;-59
2021/09/20 07:52:33;;;;;;;;;;;;;;;21.65;55.14;100517.69;5157644;27;989;-58
2021/09/20 07:54:58;;;;;;;;;;;;;;;21.57;55.72;100515.69;5158492;27;791;-56
2021/09/20 07:57:24;;;;;;;;;;;;;;;21.27;55.41;100522.75;5157926;27;881;-53
2021/09/20 07:59:49;;;;;;;;;;;;;;;20.45;54.46;100517.75;5158424;27;823;-53
2021/09/20 08:02:15;;;;;;;;;;;;;;;19.94;52.58;100519.53;5158217;27;850;-58
2021/09/20 08:04:40;;;;;;;;;;;;;;;19.41;50.53;100508.81;5157654;27;1905;-55
2021/09/20 08:07:06;;;;;;;;;;;;;;;18.93;49.01;100507.00;5157640;27;977;-58
2021/09/20 08:09:31;;;;;;;;;;;;;;;18.74;47.56;100507.75;5158329;27;810;-58
2021/09/20 08:11:57;;;;;;;;;;;;;;;18.76;48.65;100511.03;5157631;27;755;-58
2021/09/20 08:14:22;;;;;;;;;;;;;;;19.25;52.35;100510.94;5158441;27;790;-54
2021/09/20 08:16:48;;;;;;;;;;;;;;;19.86;54.27;100508.38;5158168;27;1029;-57
2021/09/20 08:19:13;;;;;;;;;;;;;;;20.38;55.22;100498.03;5157399;27;856;-57
2021/09/20 08:21:38;;;;;;;;;;;;;;;20.44;56.59;100501.50;5157392;27;1640;-59
2021/09/20 08:24:04;;;;;;;;;;;;;;;20.71;56.78;100506.25;5157947;27;1985;-59
2021/09/20 08:26:29;;;;;;;;;;;;;;;21.02;56.29;100500.06;5139066;27;826;-57
2021/09/20 08:28:55;;;;;;;;;;;;;;;21.04;56.67;100497.78;5156123;27;1082;-54
2021/09/20 08:31:21;;;;;;;;;;;;;;;21.36;56.24;100493.19;5157587;27;759;-57
2021/09/20 08:33:46;;;;;;;;;;;;;;;21.68;55.38;100499.66;5157355;27;790;-59
2021/09/20 08:36:12;;;;;;;;;;;;;;;21.73;55.34;100495.94;5155209;27;1020;-59
2021/09/20 08:38:37;;;;;;;;;;;;;;;21.63;55.60;100494.22;5153477;27;1162;-59
2021/09/20 08:41:03;;;;;;;;;;;;;;;20.82;55.39;100474.50;5157724;27;805;-59
2021/09/20 08:43:28;;;;;;;;;;;;;;;20.14;53.90;100478.91;5157543;27;1909;-60
2021/09/20 08:45:55;;;;;;;;;;;;;;;19.73;51.05;100483.19;5155248;27;1141;-59
2021/09/20 08:48:20;;;;;;;;;;;;;;;19.35;49.15;100494.28;5157595;27;792;-57
2021/09/20 08:50:46;;;;;;;;;;;;;;;18.75;48.14;100492.88;5155567;27;975;-57
2021/09/20 08:53:11;;;;;;;;;;;;;;;18.70;46.92;100495.69;5156463;27;937;-58
2021/09/20 08:55:36;;;;;;;;;;;;;;;18.67;48.07;100490.75;5157368;27;747;-59
2021/09/20 08:58:02;;;;;;;;;;;;;;;19.34;51.22;100492.63;5157282;27;803;-58
2021/09/20 09:00:28;;;;;;;;;;;;;;;19.70;54.29;100494.81;5157711;27;751;-60
2021/09/20 09:02:53;;;;;;;;;;;;;;;20.30;55.22;100490.44;5155376;27;1906;-57
2021/09/20 09:05:23;;;;;;;;;;;;;;;20.49;56.56;100488.41;5157454;27;870;-54
2021/09/20 09:07:51;;;;;;;;;;;;;;;20.99;56.31;100489.63;5140649;27;952;-58
2021/09/20 09:10:16;;;;;;;;;;;;;;;21.10;56.26;100482.75;5136172;28;790;-58
2021/09/20 09:12:43;;;;;;;;;;;;;;;21.34;55.92;100476.09;5136377;28;783;-57
2021/09/20 09:15:09;;;;;;;;;;;;;;;21.40;56.12;100472.06;5136539;28;724;-59
2021/09/20 09:17:35;;;;;;;;;;;;;;;21.52;56.12;100475.13;5135827;28;1002;-58
2021/09/20 09:20:10;;;;;;;;;;;;;;;21.79;55.04;100476.13;5136555;28;854;-56
2021/09/20 09:22:55;;;;;;;;;;;;;;;21.62;54.60;100478.78;5152316;27;1987;-57
2021/09/20 09:25:22;;;;;;;;;;;;;;;21.07;52.00;100477.00;5157178;27;758;-61
2021/09/20 09:27:49;;;;;;;;;;;;;;;20.50;49.54;100473.47;5156966;27;893;-60
2021/09/20 09:30:16;;;;;;;;;;;;;;;20.25;47.22;100472.06;5157673;27;838;-59
2021/09/20 09:32:42;;;;;;;;;;;;;;;19.70;46.60;100480.19;5157098;27;766;-60
2021/09/20 09:35:09;;;;;;;;;;;;;;;19.27;45.72;100476.47;5156798;27;849;-62
2021/09/20 09:37:35;;;;;;;;;;;;;;;18.93;46.32;100484.97;5156774;27;1027;-60
2021/09/20 09:40:05;;;;;;;;;;;;;;;19.33;47.57;100468.94;5157174;27;755;-62
2021/09/20 09:42:30;;;;;;;;;;;;;;;19.80;51.77;100475.34;5155712;27;1913;-59
2021/09/20 09:44:56;;;;;;;;;;;;;;;20.48;53.20;100469.38;5156957;27;862;-58
2021/09/20 09:47:25;;;;;;;;;;;;;;;20.75;54.59;100474.13;5156961;27;760;-58
2021/09/20 09:50:10;;;;;;;;;;;;;;;20.97;55.13;100467.84;5156519;27;819;-58
2021/09/20 09:52:35;;;;;;;;;;;;;;;21.44;54.98;100464.78;5156430;27;953;-58
2021/09/20 09:55:02;;;;;;;;;;;;;;;21.77;54.77;100475.63;5156632;27;787;-59
2021/09/20 09:57:27;;;;;;;;;;;;;;;21.65;55.18;100467.09;5156912;27;774;-63
2021/09/20 09:59:57;;;;;;;;;;;;;;;21.84;55.04;100464.91;5157316;27;759;-59
2021/09/20 10:02:25;;;;;;;;;;;;;;;22.03;54.31;100466.63;5157989;27;1909;-61
2021/09/20 10:04:51;;;;;;;;;;;;;;;22.04;52.52;100469.09;5160465;27;820;-59
2021/09/20 10:07:28;;;;;;;;;;;;;;;21.36;51.22;100454.47;5160372;27;953;-60
2021/09/20 10:09:54;;;;;;;;;;;;;;;21.15;47.84;100449.47;5160396;27;858;-60
2021/09/20 10:12:21;;;;;;;;;;;;;;;21.01;44.98;100449.50;5160662;27;822;-57
2021/09/20 10:14:47;;;;;;;;;;;;;;;20.32;44.90;100446.81;5160470;27;850;-63
2021/09/20 10:17:16;;;;;;;;;;;;;;;20.15;43.42;100439.94;5159870;27;1041;-61
2021/09/20 10:19:42;;;;;;;;;;;;;;;19.96;43.06;100437.28;5142888;27;774;-58
2021/09/20 10:22:07;;;;;;;;;;;;;;;20.07;46.79;100426.03;5159792;27;1647;-61
2021/09/20 10:24:33;;;;;;;;;;;;;;;19.97;52.23;100432.56;5160283;27;1964;-61
2021/09/20 10:26:58;;;;;;;;;;;;;;;20.44;53.56;100426.94;5159790;27;886;-61
2021/09/20 10:29:23;;;;;;;;;;;;;;;20.64;55.02;100423.75;5160214;27;819;-59
2021/09/20 10:47:01;;;;;;;;;;;;;;;20.87;52.86;100407.25;5161132;27;894;-54
2021/09/20 10:49:28;;;;;;;;;;;;;;;20.59;49.56;100400.94;5154260;27;927;-44
2021/09/20 10:51:59;;;;;;;;;;;;;;;20.10;47.74;100397.81;5150920;27;957;-59
2021/09/20 10:58:15;;;;;;;;;;;;;;;19.68;44.80;100397.75;5150430;27;1387;-48
2021/09/20 11:00:42;;;;;;;;;;;;;;;19.85;50.05;100391.66;5168315;27;1426;-52
2021/09/20 11:03:40;;;;;;;;;;;;;;;20.39;52.38;100388.41;5174874;27;1909;-54
2021/09/20 11:06:27;;;;;;;;;;;;;;;20.74;54.46;100389.56;5165287;27;1519;-54
2021/09/20 11:09:13;;;;;;;;;;;;;;;20.90;55.87;100381.78;5144172;27;826;-54
2021/09/20 11:11:41;;;;;;;;;;;;;;;21.11;56.19;100386.78;5126311;27;1010;-52
2021/09/20 11:14:07;;;;;;;;;;;;;;;21.22;56.55;100379.88;5174556;27;815;-53
2021/09/20 11:16:45;;;;;;;;;;;;;;;21.44;56.19;100376.28;5159069;27;1179;-52
2021/09/20 11:22:11;;;;;;;;;;;;;;;20.88;53.57;100372.97;5158570;27;1536;-44
2021/09/20 11:24:39;;;;;;;;;;;;;;;20.57;50.37;100361.78;5158477;27;1967;-53
2021/09/20 11:27:06;;;;;;;;;;;;;;;20.54;47.32;100365.97;5159505;27;775;-45
2021/09/20 11:29:34;;;;;;;;;;;;;;;19.95;45.92;100357.53;5159050;27;927;-57
2021/09/20 11:32:02;;;;;;;;;;;;;;;19.79;44.74;100352.31;5158277;27;771;-57
2021/09/20 11:34:31;;;;;;;;;;;;;;;19.65;45.26;100351.47;5159110;27;843;-56
2021/09/20 11:37:12;;;;;;;;;;;;;;;19.83;50.06;100349.78;5158329;27;964;-49
2021/09/20 11:40:07;;;;;;;;;;;;;;;19.82;54.70;100346.22;5157842;27;1465;-45
2021/09/20 11:42:32;;;;;;;;;;;;;;;20.27;56.31;100342.81;5129005;27;1909;-45
2021/09/20 11:44:58;;;;;;;;;;;;;;;20.61;56.83;100335.97;5165561;27;735;-54
2021/09/20 11:47:26;;;;;;;;;;;;;;;20.57;58.20;100340.50;5158489;27;1097;-54
2021/09/20 11:49:59;;;;;;;;;;;;;;;20.91;57.60;100346.66;5158603;27;782;-48
2021/09/20 11:52:34;;;;;;;;;;;;;;;21.28;56.91;100339.91;5158320;27;961;-46
2021/09/20 11:54:59;;;;;;;;;;;;;;;21.08;57.18;100341.22;5158037;27;782;-44
2021/09/20 11:57:25;;;;;;;;;;;;;;;20.70;56.26;100338.84;5158121;27;810;-45
2021/09/20 11:59:58;;;;;;;;;;;;;;;20.07;54.11;100337.72;5158214;27;898;-54
2021/09/20 12:02:29;;;;;;;;;;;;;;;19.79;51.40;100333.00;5152928;27;1148;-46
2021/09/20 12:04:55;;;;;;;;;;;;;;;19.07;49.87;100339.81;5158065;27;805;-62
2021/09/20 12:07:25;;;;;;;;;;;;;;;18.58;48.31;100328.16;5157580;27;1032;-60
2021/09/20 12:09:54;;;;;;;;;;;;;;;18.40;47.17;100327.03;5137127;27;951;-44
2021/09/20 12:12:19;;;;;;;;;;;;;;;18.61;49.68;100332.25;5156645;27;933;-61
2021/09/20 12:14:55;;;;;;;;;;;;;;;19.29;53.38;100324.53;5153961;27;1025;-60
2021/09/20 12:17:20;;;;;;;;;;;;;;;19.66;55.94;100328.28;5165951;27;970;-60
2021/09/20 12:19:52;;;;;;;;;;;;;;;20.03;56.92;100320.94;5138938;27;855;-59
2021/09/20 12:22:18;;;;;;;;;;;;;;;20.58;56.82;100317.28;5124043;27;1482;-62
2021/09/20 12:24:43;;;;;;;;;;;;;;;20.34;58.70;100314.75;5155550;27;2020;-61
2021/09/20 12:27:09;;;;;;;;;;;;;;;20.24;59.78;100317.75;5139289;27;798;-61
2021/09/20 12:29:35;;;;;;;;;;;;;;;20.40;59.47;100319.06;5139235;27;847;-58
2021/09/20 12:32:00;;;;;;;;;;;;;;;20.50;59.60;100313.28;5157196;27;738;-58
2021/09/20 12:34:31;;;;;;;;;;;;;;;20.50;59.63;100306.97;5157841;27;826;-60
2021/09/20 12:36:58;;;;;;;;;;;;;;;20.32;58.37;100311.50;5136964;27;891;-62
2021/09/20 12:39:28;;;;;;;;;;;;;;;19.93;55.90;100299.91;5157962;27;787;-61
2021/09/20 12:42:03;;;;;;;;;;;;;;;19.38;53.46;100300.69;5157146;27;751;-59
2021/09/20 12:44:30;;;;;;;;;;;;;;;18.85;51.78;100303.78;5157613;27;1967;-57
2021/09/20 12:47:15;;;;;;;;;;;;;;;18.55;50.26;100301.22;5157106;27;810;-51
2021/09/20 12:49:41;;;;;;;;;;;;;;;18.46;48.68;100301.03;5156800;27;755;-60
2021/09/20 12:52:25;;;;;;;;;;;;;;;18.41;47.88;100294.78;5157213;27;1144;-56
2021/09/20 12:54:51;;;;;;;;;;;;;;;18.32;48.52;100300.16;5157209;27;843;-59
2021/09/20 12:57:17;;;;;;;;;;;;;;;18.91;49.76;100299.84;5156823;27;786;-57
2021/09/20 12:59:42;;;;;;;;;;;;;;;19.27;53.61;100294.53;5157658;27;791;-52
2021/09/20 13:02:12;;;;;;;;;;;;;;;19.70;55.45;100279.66;5159571;27;1354;-56
2021/09/20 13:04:39;;;;;;;;;;;;;;;20.00;56.55;100280.16;5164493;27;1909;-58
2021/09/20 13:07:04;;;;;;;;;;;;;;;20.10;57.85;100281.91;5164623;27;1472;-60
2021/09/20 13:09:30;;;;;;;;;;;;;;;20.41;57.83;100282.03;5165925;27;774;-61
2021/09/20 13:12:05;;;;;;;;;;;;;;;20.63;58.01;100274.88;5157489;27;814;-63
2021/09/20 13:14:32;;;;;;;;;;;;;;;20.63;58.81;100288.69;5167247;27;775;-57